createdAt,value
2019-05-16T00:02:28.470Z,3.43
2019-05-16T00:04:59.158Z,1.67
2019-05-16T00:07:28.499Z,1.43
2019-05-16T00:09:59.040Z,1.97
2019-05-16T00:12:29.151Z,2.97
2019-05-16T00:14:58.268Z,1.30
2019-05-16T00:17:28.462Z,2.13
2019-05-16T00:19:58.949Z,2.70
2019-05-16T00:22:28.762Z,2.03
2019-05-16T00:24:58.099Z,1.67
2019-05-16T00:27:28.073Z,2.03
2019-05-16T00:29:58.447Z,1.50
2019-05-16T00:32:28.159Z,1.73
2019-05-16T00:34:58.330Z,1.80
2019-05-16T00:37:28.658Z,2.47
2019-05-16T00:39:58.768Z,1.70
2019-05-16T00:42:28.683Z,2.63
2019-05-16T00:45:00.940Z,1.90
2019-05-16T00:47:30.692Z,2.10
2019-05-16T00:49:59.652Z,1.90
2019-05-16T00:52:28.932Z,2.70
2019-05-16T00:54:58.125Z,3.17
2019-05-16T00:57:28.194Z,5.53
2019-05-16T00:59:59.177Z,2.47
2019-05-16T01:02:29.178Z,2.67
2019-05-16T01:04:59.044Z,3.63
2019-05-16T01:07:28.538Z,5.90
2019-05-16T01:09:58.321Z,3.00
2019-05-16T01:12:28.341Z,2.87
2019-05-16T01:14:58.442Z,2.60
2019-05-16T01:17:28.346Z,3.10
2019-05-16T01:19:57.925Z,5.40
2019-05-16T01:22:29.013Z,4.97
2019-05-16T01:24:58.479Z,5.07
2019-05-16T01:27:28.530Z,2.23
2019-05-16T01:29:58.411Z,3.50
2019-05-16T01:32:31.873Z,3.73
2019-05-16T01:34:58.928Z,3.03
2019-05-16T01:37:28.431Z,2.17
2019-05-16T01:39:58.717Z,2.27
2019-05-16T01:42:28.698Z,3.83
2019-05-16T01:44:57.922Z,3.60
2019-05-16T01:47:28.779Z,3.93
2019-05-16T01:49:58.121Z,3.80
2019-05-16T01:52:29.064Z,3.63
2019-05-16T01:54:58.807Z,3.43
2019-05-16T01:57:28.303Z,2.17
2019-05-16T01:59:58.935Z,2.00
2019-05-16T02:02:28.938Z,2.87
2019-05-16T02:04:59.056Z,1.83
2019-05-16T02:07:28.469Z,2.00
2019-05-16T02:09:58.283Z,3.97
2019-05-16T02:12:27.797Z,1.73
2019-05-16T02:14:58.716Z,2.03
2019-05-16T02:17:29.708Z,2.20
2019-05-16T02:19:58.930Z,2.43
2019-05-16T02:22:28.567Z,2.80
2019-05-16T02:24:58.473Z,2.17
2019-05-16T02:27:28.724Z,1.83
2019-05-16T02:29:59.886Z,3.30
2019-05-16T02:32:31.311Z,2.43
2019-05-16T02:35:01.175Z,2.80
2019-05-16T02:37:34.452Z,2.60
2019-05-16T02:40:01.681Z,4.20
2019-05-16T02:42:31.366Z,2.83
2019-05-16T02:45:02.382Z,2.23
2019-05-16T02:47:34.855Z,2.70
2019-05-16T02:50:02.209Z,2.53
2019-05-16T02:52:31.791Z,1.70
2019-05-16T02:55:01.391Z,2.30
2019-05-16T02:57:31.553Z,4.43
2019-05-16T03:00:02.016Z,3.00
2019-05-16T03:02:31.396Z,2.20
2019-05-16T03:05:01.120Z,2.60
2019-05-16T03:07:41.053Z,2.17
2019-05-16T03:10:02.189Z,1.90
2019-05-16T03:12:32.923Z,3.47
2019-05-16T03:15:02.979Z,3.23
2019-05-16T03:17:35.753Z,2.10
2019-05-16T03:20:06.300Z,4.23
2019-05-16T03:22:36.875Z,3.63
2019-05-16T03:25:06.343Z,3.53
2019-05-16T03:27:35.267Z,4.50
2019-05-16T03:30:04.567Z,3.03
2019-05-16T03:32:34.606Z,2.17
2019-05-16T03:35:06.078Z,3.90
2019-05-16T03:37:50.248Z,1.80
2019-05-16T03:40:06.868Z,3.00
2019-05-16T03:42:35.761Z,3.10
2019-05-16T03:45:04.865Z,2.90
2019-05-16T03:47:34.701Z,2.80
2019-05-16T03:50:03.792Z,2.60
2019-05-16T03:52:32.615Z,3.40
2019-05-16T03:55:02.050Z,2.27
2019-05-16T03:57:31.155Z,2.23
2019-05-16T04:00:00.789Z,4.17
2019-05-16T04:02:31.026Z,2.47
2019-05-16T04:05:02.031Z,3.87
2019-05-16T04:07:31.959Z,2.93
2019-05-16T04:10:02.234Z,2.60
2019-05-16T04:12:31.484Z,2.67
2019-05-16T04:15:01.872Z,3.87
2019-05-16T04:17:31.913Z,4.10
2019-05-16T04:20:02.375Z,4.50
2019-05-16T04:22:31.985Z,2.73
2019-05-16T04:25:01.992Z,2.43
2019-05-16T04:27:31.600Z,2.63
2019-05-16T04:30:01.985Z,2.50
2019-05-16T04:32:31.767Z,2.73
2019-05-16T04:35:02.642Z,4.43
2019-05-16T04:37:32.459Z,2.10
2019-05-16T04:40:01.825Z,3.00
2019-05-16T04:42:31.362Z,4.80
2019-05-16T04:47:51.067Z,2.40
2019-05-16T04:50:21.061Z,4.13
2019-05-16T04:52:51.778Z,3.27
2019-05-16T04:55:21.404Z,3.47
2019-05-16T04:57:51.292Z,2.90
2019-05-16T05:00:21.429Z,2.37
2019-05-16T05:02:51.890Z,2.50
2019-05-16T05:05:21.721Z,3.77
2019-05-16T05:07:51.199Z,2.77
2019-05-16T05:10:20.911Z,5.67
2019-05-16T05:12:51.534Z,4.20
2019-05-16T05:15:21.436Z,8.60
2019-05-16T05:17:50.693Z,5.47
2019-05-16T05:20:20.983Z,2.37
2019-05-16T05:22:51.093Z,4.47
2019-05-16T05:25:20.568Z,3.20
2019-05-16T05:27:50.093Z,4.37
2019-05-16T05:30:19.902Z,2.60
2019-05-16T05:32:50.216Z,8.43
2019-05-16T05:35:20.843Z,2.23
2019-05-16T05:37:50.817Z,6.00
2019-05-16T05:40:20.251Z,5.90
2019-05-16T05:42:50.452Z,4.27
2019-05-16T05:45:20.243Z,3.50
2019-05-16T05:47:50.594Z,2.60
2019-05-16T05:50:20.291Z,2.17
2019-05-16T05:52:51.101Z,2.93
2019-05-16T05:55:20.360Z,2.23
2019-05-16T05:57:50.620Z,4.10
2019-05-16T06:00:21.138Z,4.30
2019-05-16T06:02:50.879Z,10.37
2019-05-16T06:05:20.384Z,3.63
2019-05-16T06:07:50.994Z,4.03
2019-05-16T06:10:20.191Z,3.93
2019-05-16T06:12:50.180Z,2.73
2019-05-16T06:15:20.288Z,1.87
2019-05-16T06:17:50.943Z,2.50
2019-05-16T06:20:21.035Z,4.40
2019-05-16T06:22:50.899Z,2.83
2019-05-16T06:25:22.847Z,2.00
2019-05-16T06:27:51.268Z,4.93
2019-05-16T06:30:21.290Z,6.20
2019-05-16T06:32:50.611Z,3.77
2019-05-16T06:35:21.293Z,3.50
2019-05-16T06:37:50.786Z,2.87
2019-05-16T06:40:20.270Z,2.60
2019-05-16T06:42:51.017Z,2.87
2019-05-16T06:45:20.640Z,2.33
2019-05-16T06:47:50.380Z,2.87
2019-05-16T06:50:20.796Z,3.47
2019-05-16T06:52:50.539Z,2.97
2019-05-16T06:55:20.469Z,4.13
2019-05-16T06:57:50.299Z,2.47
2019-05-16T07:00:20.955Z,3.50
2019-05-16T07:02:50.719Z,20.93
2019-05-16T07:05:20.796Z,2.57
2019-05-16T07:07:50.939Z,2.70
2019-05-16T07:10:20.562Z,5.57
2019-05-16T07:12:50.449Z,2.90
2019-05-16T07:15:20.651Z,3.53
2019-05-16T07:17:51.170Z,2.80
2019-05-16T07:20:20.964Z,4.00
2019-05-16T07:22:50.562Z,3.10
2019-05-16T07:25:20.794Z,5.00
2019-05-16T07:27:51.178Z,4.13
2019-05-16T07:30:20.668Z,3.07
2019-05-16T07:32:50.131Z,2.97
2019-05-16T07:35:20.514Z,8.47
2019-05-16T07:37:50.113Z,3.10
2019-05-16T07:40:26.256Z,7.10
2019-05-16T07:42:51.036Z,6.23
2019-05-16T07:45:20.543Z,3.67
2019-05-16T07:47:50.980Z,5.30
2019-05-16T07:50:20.457Z,6.80
2019-05-16T07:52:51.149Z,2.30
2019-05-16T07:55:21.088Z,4.57
2019-05-16T07:57:50.656Z,1.70
2019-05-16T08:00:21.646Z,4.43
2019-05-16T08:02:51.333Z,1.87
2019-05-16T08:05:21.306Z,3.03
2019-05-16T08:07:51.362Z,2.83
2019-05-16T08:10:36.997Z,4.03
2019-05-16T08:12:51.983Z,2.80
2019-05-16T08:15:21.528Z,2.67
2019-05-16T08:17:51.386Z,2.17
2019-05-16T08:20:21.292Z,3.70
2019-05-16T08:22:51.219Z,2.30
2019-05-16T08:25:20.582Z,1.97
2019-05-16T08:27:52.010Z,4.20
2019-05-16T08:30:21.271Z,2.53
2019-05-16T08:32:52.906Z,2.07
2019-05-16T08:35:21.725Z,2.33
2019-05-16T08:37:51.634Z,4.97
2019-05-16T08:40:21.669Z,3.43
2019-05-16T08:42:51.873Z,1.73
2019-05-16T08:45:22.330Z,2.27
2019-05-16T08:47:52.546Z,1.70
2019-05-16T08:50:22.383Z,2.00
2019-05-16T08:52:52.711Z,2.37
2019-05-16T08:55:22.296Z,2.97
2019-05-16T08:57:54.301Z,4.03
2019-05-16T09:00:23.770Z,2.87
2019-05-16T09:02:52.863Z,2.43
2019-05-16T09:05:22.843Z,2.20
2019-05-16T09:08:00.441Z,3.67
2019-05-16T09:12:53.414Z,1.97
2019-05-16T09:15:22.647Z,4.50
2019-05-16T09:17:51.614Z,2.33
2019-05-16T09:20:20.943Z,17.80
2019-05-16T09:22:49.952Z,4.17
2019-05-16T09:25:19.246Z,5.73
2019-05-16T09:27:48.805Z,5.23
2019-05-16T09:30:17.859Z,4.43
2019-05-16T09:32:47.999Z,3.93
2019-05-16T09:35:17.678Z,5.00
2019-05-16T09:37:47.309Z,4.93
2019-05-16T09:40:18.319Z,6.47
2019-05-16T09:42:47.694Z,2.23
2019-05-16T09:45:17.304Z,7.03
2019-05-16T09:47:48.425Z,2.20
2019-05-16T09:50:17.684Z,3.37
2019-05-16T09:52:47.332Z,13.63
2019-05-16T09:55:17.580Z,3.93
2019-05-16T09:57:47.043Z,3.83
2019-05-16T10:00:19.423Z,4.50
2019-05-16T10:02:48.595Z,4.80
2019-05-16T10:05:19.132Z,2.50
2019-05-16T10:07:48.137Z,2.20
2019-05-16T10:10:17.348Z,1.90
2019-05-16T10:12:49.430Z,3.50
2019-05-16T10:15:18.898Z,3.00
2019-05-16T10:17:47.936Z,3.67
2019-05-16T10:20:17.880Z,3.20
2019-05-16T10:22:50.517Z,5.17
2019-05-16T10:25:19.584Z,3.37
2019-05-16T10:27:48.903Z,3.03
2019-05-16T10:30:19.847Z,3.53
2019-05-16T10:32:48.782Z,3.30
2019-05-16T10:35:18.451Z,3.70
2019-05-16T10:37:47.441Z,2.47
2019-05-16T10:40:18.563Z,4.03
2019-05-16T10:42:47.544Z,3.93
2019-05-16T10:45:16.835Z,5.67
2019-05-16T10:47:48.096Z,6.00
2019-05-16T10:50:16.965Z,3.00
2019-05-16T10:52:48.941Z,3.17
2019-05-16T10:55:17.815Z,5.70
2019-05-16T10:57:47.773Z,4.67
2019-05-16T11:00:42.422Z,3.10
2019-05-16T11:02:50.410Z,4.00
2019-05-16T11:05:30.108Z,5.20
2019-05-16T11:07:53.169Z,5.37
2019-05-16T11:10:21.987Z,7.17
2019-05-16T11:12:55.177Z,5.20
2019-05-16T11:15:21.867Z,4.63
2019-05-16T11:17:50.823Z,4.90
2019-05-16T11:20:21.238Z,5.43
2019-05-16T11:22:50.456Z,3.53
2019-05-16T11:25:28.357Z,3.67
2019-05-16T11:27:50.282Z,5.83
2019-05-16T11:30:19.663Z,6.40
2019-05-16T11:32:48.996Z,6.20
2019-05-16T11:35:18.024Z,3.40
2019-05-16T11:37:47.423Z,5.40
2019-05-16T11:40:17.986Z,8.53
2019-05-16T11:42:56.939Z,5.03
2019-05-16T11:45:18.321Z,4.30
2019-05-16T11:47:47.387Z,8.23
2019-05-16T11:50:17.677Z,6.90
2019-05-16T11:52:47.677Z,7.07
2019-05-16T11:55:17.016Z,6.80
2019-05-16T11:57:47.651Z,3.67
2019-05-16T12:00:18.180Z,4.93
2019-05-16T12:02:47.929Z,4.07
2019-05-16T12:05:17.570Z,4.10
2019-05-16T12:07:48.268Z,4.60
2019-05-16T12:10:18.017Z,5.93
2019-05-16T12:12:47.204Z,4.73
2019-05-16T12:15:19.988Z,3.70
2019-05-16T12:18:00.269Z,5.13
2019-05-16T12:20:18.211Z,6.40
2019-05-16T12:22:47.268Z,9.67
2019-05-16T12:25:16.887Z,6.70
2019-05-16T12:27:48.050Z,5.00
2019-05-16T12:30:17.786Z,4.77
2019-05-16T12:32:47.159Z,5.30
2019-05-16T12:35:17.660Z,5.70
2019-05-16T12:37:48.036Z,5.97
2019-05-16T12:40:17.364Z,3.33
2019-05-16T12:42:47.165Z,4.67
2019-05-16T12:45:16.593Z,5.10
2019-05-16T12:47:47.249Z,4.63
2019-05-16T12:50:17.768Z,7.07
2019-05-16T12:52:47.474Z,4.97
2019-05-16T12:55:17.213Z,5.23
2019-05-16T12:57:48.966Z,4.17
2019-05-16T13:00:18.955Z,5.53
2019-05-16T13:02:48.482Z,6.17
2019-05-16T13:05:18.031Z,5.00
2019-05-16T13:07:47.763Z,5.27
2019-05-16T13:10:17.471Z,4.27
2019-05-16T13:12:46.473Z,5.67
2019-05-16T13:15:18.080Z,4.00
2019-05-16T13:17:47.440Z,4.30
2019-05-16T13:20:17.960Z,4.00
2019-05-16T13:22:47.456Z,4.90
2019-05-16T13:25:18.312Z,4.40
2019-05-16T13:27:47.777Z,5.97
2019-05-16T13:30:18.642Z,6.13
2019-05-16T13:32:48.125Z,4.67
2019-05-16T13:35:17.322Z,4.57
2019-05-16T13:37:47.675Z,4.30
2019-05-16T13:40:17.837Z,5.73
2019-05-16T13:42:48.075Z,4.07
2019-05-16T13:45:18.032Z,5.93
2019-05-16T13:47:48.625Z,10.33
2019-05-16T13:50:18.395Z,6.07
2019-05-16T13:52:48.079Z,3.40
2019-05-16T13:55:18.698Z,4.73
2019-05-16T13:57:47.741Z,7.00
2019-05-16T14:00:17.486Z,3.83
2019-05-16T14:02:46.670Z,5.77
2019-05-16T14:05:17.995Z,6.07
2019-05-16T14:07:47.975Z,4.93
2019-05-16T14:10:18.325Z,4.57
2019-05-16T14:12:50.097Z,4.47
2019-05-16T14:15:18.718Z,6.77
2019-05-16T14:17:48.940Z,7.40
2019-05-16T14:20:18.585Z,5.37
2019-05-16T14:22:47.875Z,5.57
2019-05-16T14:25:16.888Z,5.93
2019-05-16T14:27:47.520Z,5.23
2019-05-16T14:30:18.082Z,6.93
2019-05-16T14:32:50.816Z,6.27
2019-05-16T14:35:18.118Z,9.07
2019-05-16T14:37:47.064Z,6.40
2019-05-16T14:40:17.630Z,4.17
2019-05-16T14:42:47.952Z,4.33
2019-05-16T14:45:19.676Z,4.80
2019-05-16T14:47:49.345Z,6.40
2019-05-16T14:50:19.090Z,6.13
2019-05-16T14:52:48.082Z,4.27
2019-05-16T14:55:18.789Z,5.97
2019-05-16T14:57:47.921Z,5.13
2019-05-16T15:00:18.713Z,3.17
2019-05-16T15:02:48.426Z,4.60
2019-05-16T15:05:18.614Z,6.53
2019-05-16T15:07:51.315Z,5.77
2019-05-16T15:10:20.469Z,4.27
2019-05-16T15:12:49.784Z,5.00
2019-05-16T15:15:24.272Z,5.87
2019-05-16T15:17:53.190Z,5.67
2019-05-16T15:20:23.238Z,5.43
2019-05-16T15:22:52.160Z,4.53
2019-05-16T15:25:21.436Z,4.50
2019-05-16T15:27:50.916Z,4.53
2019-05-16T15:30:22.655Z,7.00
2019-05-16T15:32:52.112Z,4.40
2019-05-16T15:35:21.473Z,3.57
2019-05-16T15:37:51.115Z,5.73
2019-05-16T15:40:20.486Z,4.23
2019-05-16T15:42:49.591Z,4.10
2019-05-16T15:45:34.591Z,4.57
2019-05-16T15:47:51.586Z,3.80
2019-05-16T15:50:21.123Z,4.27
2019-05-16T15:52:50.564Z,5.37
2019-05-16T15:55:19.958Z,8.63
2019-05-16T15:57:48.967Z,4.40
2019-05-16T16:00:23.409Z,4.97
2019-05-16T16:02:52.369Z,6.83
2019-05-16T16:05:21.539Z,3.97
2019-05-16T16:07:50.318Z,2.90
2019-05-16T16:10:22.527Z,6.57
2019-05-16T16:12:51.366Z,3.10
2019-05-16T16:15:21.293Z,4.80
2019-05-16T16:17:50.122Z,4.70
2019-05-16T16:20:19.036Z,3.57
2019-05-16T16:22:47.863Z,3.50
2019-05-16T16:25:17.648Z,5.40
2019-05-16T16:27:47.138Z,17.33
2019-05-16T16:30:18.664Z,3.20
2019-05-16T16:32:46.908Z,4.73
2019-05-16T16:35:17.307Z,3.90
2019-05-16T16:37:47.001Z,5.93
2019-05-16T16:40:17.569Z,8.53
2019-05-16T16:42:47.576Z,5.47
2019-05-16T16:45:17.205Z,4.40
2019-05-16T16:47:46.888Z,4.37
2019-05-16T16:50:17.250Z,5.97
2019-05-16T16:52:47.405Z,6.40
2019-05-16T16:55:17.196Z,4.87
2019-05-16T16:57:47.201Z,6.23
2019-05-16T17:00:17.785Z,5.67
2019-05-16T17:03:02.089Z,6.60
2019-05-16T17:05:17.750Z,5.40
2019-05-16T17:07:48.718Z,5.63
2019-05-16T17:10:20.650Z,6.60
2019-05-16T17:12:49.801Z,12.83
2019-05-16T17:15:18.937Z,6.20
2019-05-16T17:17:50.282Z,5.63
2019-05-16T17:20:19.313Z,6.90
2019-05-16T17:22:50.902Z,8.57
2019-05-16T17:25:20.278Z,10.23
2019-05-16T17:27:49.241Z,5.87
2019-05-16T17:30:20.388Z,6.33
2019-05-16T17:32:49.323Z,8.53
2019-05-16T17:35:20.762Z,8.63
2019-05-16T17:37:49.792Z,7.53
2019-05-16T17:40:19.551Z,6.10
2019-05-16T17:42:48.587Z,5.93
2019-05-16T17:45:18.325Z,7.23
2019-05-16T17:47:47.615Z,9.00
2019-05-16T17:50:18.261Z,9.23
2019-05-16T17:52:47.839Z,8.33
2019-05-16T17:55:18.635Z,7.50
2019-05-16T17:57:47.625Z,7.13
2019-05-16T18:00:25.188Z,6.10
2019-05-16T18:02:48.005Z,6.90
2019-05-16T18:05:17.379Z,7.30
2019-05-16T18:07:47.390Z,8.27
2019-05-16T18:10:18.072Z,5.97
2019-05-16T18:12:48.076Z,7.03
2019-05-16T18:15:22.278Z,7.50
2019-05-16T18:17:51.179Z,7.03
2019-05-16T18:20:22.374Z,31.07
2019-05-16T18:22:51.842Z,8.23
2019-05-16T18:25:20.898Z,9.60
2019-05-16T18:27:50.052Z,7.60
2019-05-16T18:30:23.591Z,6.00
2019-05-16T18:32:53.257Z,7.87
2019-05-16T18:35:22.180Z,6.10
2019-05-16T18:37:51.317Z,6.67
2019-05-16T18:40:20.832Z,7.87
2019-05-16T18:42:49.823Z,8.33
2019-05-16T18:45:18.848Z,7.53
2019-05-16T18:47:47.844Z,8.57
2019-05-16T18:50:18.056Z,6.63
2019-05-16T18:52:47.423Z,6.47
2019-05-16T18:55:17.038Z,63.10
2019-05-16T18:57:47.252Z,16.93
2019-05-16T19:00:18.091Z,8.03
2019-05-16T19:02:48.002Z,8.70
2019-05-16T19:05:17.583Z,7.63
2019-05-16T19:07:47.605Z,6.73
2019-05-16T19:10:17.798Z,8.30
2019-05-16T19:12:47.697Z,10.07
2019-05-16T19:15:17.796Z,6.53
2019-05-16T19:17:47.269Z,5.50
2019-05-16T19:20:17.305Z,5.80
2019-05-16T19:22:46.784Z,7.47
2019-05-16T19:25:19.686Z,5.67
2019-05-16T19:27:48.759Z,5.70
2019-05-16T19:30:18.456Z,6.03
2019-05-16T19:32:47.570Z,6.30
2019-05-16T19:35:16.975Z,7.70
2019-05-16T19:37:47.040Z,8.37
2019-05-16T19:40:17.214Z,6.57
2019-05-16T19:42:47.257Z,6.63
2019-05-16T19:45:17.803Z,8.70
2019-05-16T19:47:47.134Z,7.77
2019-05-16T19:50:17.313Z,5.10
2019-05-16T19:52:47.199Z,7.60
2019-05-16T19:55:17.047Z,6.13
2019-05-16T19:57:46.690Z,7.33
2019-05-16T20:00:17.318Z,7.07
2019-05-16T20:02:47.319Z,12.23
2019-05-16T20:05:17.023Z,6.80
2019-05-16T20:07:46.123Z,6.20
2019-05-16T20:10:16.866Z,7.50
2019-05-16T20:12:46.334Z,7.30
2019-05-16T20:15:16.594Z,6.17
2019-05-16T20:17:58.248Z,7.53
2019-05-16T20:20:18.589Z,6.43
2019-05-16T20:22:48.120Z,6.37
2019-05-16T20:25:17.132Z,8.10
2019-05-16T20:27:46.931Z,7.50
2019-05-16T20:30:17.250Z,9.47
2019-05-16T20:32:46.693Z,11.83
2019-05-16T20:35:17.443Z,10.73
2019-05-16T20:37:47.426Z,11.13
2019-05-16T20:40:17.358Z,11.80
2019-05-16T20:42:47.594Z,10.50
2019-05-16T20:45:16.981Z,10.77
2019-05-16T20:47:46.287Z,10.47
2019-05-16T20:50:16.959Z,12.37
2019-05-16T20:52:46.596Z,10.40
2019-05-16T20:55:17.666Z,14.00
2019-05-16T20:57:48.503Z,13.47
2019-05-16T21:00:19.194Z,13.33
2019-05-16T21:02:49.529Z,12.03
2019-05-16T21:05:20.628Z,18.90
2019-05-16T21:07:50.396Z,15.00
2019-05-16T21:10:20.395Z,11.10
2019-05-16T21:12:49.561Z,11.33
2019-05-16T21:15:19.474Z,11.40
2019-05-16T21:17:48.319Z,12.03
2019-05-16T21:20:17.696Z,11.90
2019-05-16T21:22:47.161Z,11.53
2019-05-16T21:25:16.904Z,14.80
2019-05-16T21:27:47.023Z,13.70
2019-05-16T21:30:16.414Z,13.03
2019-05-16T21:32:47.175Z,14.53
2019-05-16T21:35:16.342Z,12.60
2019-05-16T21:37:46.794Z,12.60
2019-05-16T21:40:17.036Z,13.73
2019-05-16T21:42:46.250Z,14.07
2019-05-16T21:45:15.326Z,13.70
2019-05-16T21:47:44.301Z,17.20
2019-05-16T21:50:13.695Z,27.10
2019-05-16T21:52:42.734Z,20.13
2019-05-16T21:55:12.145Z,17.03
2019-05-16T21:57:41.241Z,17.27
2019-05-16T22:00:16.771Z,15.93
2019-05-16T22:02:46.676Z,17.60
2019-05-16T22:05:17.179Z,19.40
2019-05-16T22:07:47.396Z,18.03
2019-05-16T22:10:17.140Z,19.10
2019-05-16T22:12:47.703Z,16.30
2019-05-16T22:15:17.212Z,18.90
2019-05-16T22:17:47.140Z,21.83
2019-05-16T22:20:17.011Z,19.63
2019-05-16T22:22:46.958Z,18.93
2019-05-16T22:25:16.841Z,24.83
2019-05-16T22:27:48.427Z,20.33
2019-05-16T22:30:18.417Z,24.67
2019-05-16T22:32:47.484Z,24.67
2019-05-16T22:35:17.721Z,21.87
2019-05-16T22:37:52.380Z,19.23
2019-05-16T22:40:18.093Z,23.97
2019-05-16T22:42:47.342Z,23.70
2019-05-16T22:45:19.394Z,24.90
2019-05-16T22:47:48.468Z,26.10
2019-05-16T22:50:19.731Z,23.97
2019-05-16T22:52:48.734Z,23.93
2019-05-16T22:55:18.057Z,23.30
2019-05-16T22:57:47.485Z,22.67
2019-05-16T23:00:26.540Z,23.57
2019-05-16T23:02:56.639Z,22.90
2019-05-16T23:05:27.460Z,21.97
2019-05-16T23:08:05.027Z,22.80
2019-05-16T23:10:28.087Z,21.50
2019-05-16T23:12:57.392Z,20.53
2019-05-16T23:15:26.704Z,20.63
2019-05-16T23:17:57.316Z,24.03
2019-05-16T23:20:27.768Z,21.70
2019-05-16T23:22:56.873Z,20.80
2019-05-16T23:25:26.048Z,24.03
2019-05-16T23:27:56.662Z,21.27
2019-05-16T23:30:27.243Z,21.93
2019-05-16T23:32:59.735Z,18.47
2019-05-16T23:35:28.707Z,22.73
2019-05-16T23:37:57.684Z,22.10
2019-05-16T23:40:26.723Z,21.60
2019-05-16T23:42:56.938Z,20.67
2019-05-16T23:45:27.468Z,21.67
2019-05-16T23:47:56.647Z,18.90
2019-05-16T23:50:27.536Z,18.03
2019-05-16T23:52:56.397Z,20.27
2019-05-16T23:55:27.766Z,18.90
2019-05-16T23:57:57.085Z,20.00
